Time;durP1;ratioP1;P1;durP2;ratioP2;P2;SDS_P1;SDS_P2;PMS_P1;PMS_P2;Temp;Humidity;BMP_temperature;BMP_pressure;BME280_temperature;BME280_humidity;BME280_pressure;Samples;Min_cycle;Max_cycle;Signal;HPM_P1;HPM_P2
2023/07/17 00:00:45;;;;;;;7.38;3.50;;;;;;;20.08;49.84;101143.72;15538091;28;20077;-57
2023/07/17 00:08:18;;;;;;;5.88;3.38;;;;;;;20.22;50.25;101130.44;15569626;28;20122;-57
2023/07/17 00:15:52;;;;;;;6.53;3.47;;;;;;;20.25;49.49;101129.94;15574967;28;20410;-56
2023/07/17 00:23:26;;;;;;;7.10;3.53;;;;;;;20.00;49.52;101136.03;15537936;28;20095;-57
2023/07/17 00:31:01;;;;;;;7.68;3.53;;;;;;;19.85;48.89;101141.41;15555360;28;20565;-57
2023/07/17 00:38:34;;;;;;;10.63;3.50;;;;;;;20.09;48.95;101128.19;15535262;28;20467;-58
2023/07/17 00:46:08;;;;;;;7.32;3.45;;;;;;;19.90;50.31;101127.00;15533070;28;20053;-59
2023/07/17 00:53:41;;;;;;;6.00;3.65;;;;;;;19.87;50.40;101123.72;15536522;28;20411;-57
2023/07/17 01:01:20;;;;;;;8.80;3.53;;;;;;;19.90;51.15;101111.47;15536201;28;20101;-56
2023/07/17 01:08:53;;;;;;;6.35;3.78;;;;;;;19.76;52.25;101111.09;15539244;28;20078;-57
2023/07/17 01:16:29;;;;;;;8.77;3.60;;;;;;;19.63;51.16;101108.81;15564239;28;20048;-55
2023/07/17 01:24:05;;;;;;;10.32;4.18;;;;;;;19.79;49.92;101110.59;15564095;28;20049;-59
2023/07/17 01:31:39;;;;;;;7.43;3.97;;;;;;;18.83;51.94;101127.69;15515624;28;20045;-59
2023/07/17 01:39:15;;;;;;;6.50;4.00;;;;;;;19.17;52.26;101122.06;15563054;28;20133;-56
2023/07/17 01:46:48;;;;;;;6.78;4.10;;;;;;;19.34;52.68;101111.84;15551992;28;20447;-57
2023/07/17 01:54:22;;;;;;;;;;;;;;;19.02;53.25;101119.16;15563243;28;20041;-56
2023/07/17 02:01:55;;;;;;;7.80;4.35;;;;;;;19.31;52.26;101111.56;15546339;28;20027;-55
2023/07/17 02:09:29;;;;;;;8.90;4.32;;;;;;;19.20;52.34;101123.44;15593491;28;20041;-57
2023/07/17 02:17:02;;;;;;;15.40;5.03;;;;;;;18.47;54.35;101118.28;15539494;28;20076;-58
2023/07/17 02:24:36;;;;;;;8.57;4.50;;;;;;;18.65;52.52;101117.13;15623236;28;20046;-52
2023/07/17 02:32:09;;;;;;;6.00;4.22;;;;;;;18.48;54.52;101119.13;15596526;28;20052;-55
2023/07/17 02:39:44;;;;;;;6.55;4.07;;;;;;;18.43;54.92;101133.47;15563270;28;20053;-54
2023/07/17 02:47:17;;;;;;;8.75;4.45;;;;;;;18.15;55.99;101131.72;15525657;28;20590;-54
2023/07/17 02:54:51;;;;;;;13.77;5.13;;;;;;;17.93;57.35;101139.03;15542758;28;20137;-55
2023/07/17 03:02:25;;;;;;;14.25;5.00;;;;;;;18.01;56.53;101141.31;15546166;28;20041;-56
2023/07/17 03:09:59;;;;;;;;;;;;;;;17.78;58.03;101139.63;15559612;28;20045;-56
2023/07/17 03:17:32;;;;;;;7.68;4.68;;;;;;;17.72;57.89;101144.13;15568364;28;19948;-56
2023/07/17 03:25:07;;;;;;;9.52;5.35;;;;;;;17.36;55.45;101144.59;15571750;28;20046;-57
2023/07/17 03:32:40;;;;;;;12.82;5.45;;;;;;;17.83;55.08;101150.56;15620263;28;20052;-55
2023/07/17 03:40:14;;;;;;;11.52;5.47;;;;;;;17.97;54.75;101153.75;15577304;28;20045;-54
2023/07/17 03:47:50;;;;;;;6.72;4.82;;;;;;;17.67;54.50;101159.47;15554852;28;20092;-57
2023/07/17 03:55:25;;;;;;;8.45;4.80;;;;;;;17.73;54.81;101163.94;15547651;28;20042;-58
2023/07/17 04:02:59;;;;;;;12.35;5.20;;;;;;;17.68;54.76;101170.13;15538916;28;20282;-59
2023/07/17 04:10:47;;;;;;;9.80;5.18;;;;;;;17.61;56.62;101169.44;15537554;28;20042;-57
2023/07/17 04:18:20;;;;;;;10.68;5.40;;;;;;;17.96;55.60;101155.66;15551261;28;20061;-60
2023/07/17 04:25:54;;;;;;;11.07;5.30;;;;;;;18.34;54.94;101162.97;15546863;28;20073;-59
2023/07/17 04:33:31;;;;;;;11.52;5.65;;;;;;;18.33;55.48;101158.63;15515929;28;20144;-60
2023/07/17 04:41:07;;;;;;;9.00;4.80;;;;;;;18.47;54.51;101164.50;15544119;28;20054;-59
2023/07/17 04:48:40;;;;;;;11.27;5.22;;;;;;;18.70;55.51;101174.34;15529961;28;20372;-60
2023/07/17 04:56:15;;;;;;;9.43;5.05;;;;;;;18.83;55.68;101171.19;15546801;28;20049;-59
2023/07/17 05:03:49;;;;;;;11.05;4.93;;;;;;;18.48;55.04;101168.84;15514537;28;20074;-59
2023/07/17 05:11:24;;;;;;;7.68;5.32;;;;;;;18.66;54.28;101175.88;15539831;23;20057;-55
2023/07/17 05:18:58;;;;;;;13.18;5.68;;;;;;;18.45;54.88;101171.25;15536491;28;20056;-57
2023/07/17 05:26:37;;;;;;;13.32;5.55;;;;;;;19.01;52.76;101175.47;15530151;28;20541;-54
2023/07/17 05:34:11;;;;;;;12.98;5.68;;;;;;;19.20;52.87;101188.75;15530847;28;20053;-53
2023/07/17 05:41:46;;;;;;;9.43;4.78;;;;;;;19.75;52.37;101184.91;15529816;28;20038;-57
2023/07/17 05:49:19;;;;;;;12.23;4.90;;;;;;;19.81;51.09;101187.41;15513208;28;20492;-54
2023/07/17 05:56:53;;;;;;;;;;;;;;;20.64;49.21;101179.47;15530652;28;20046;-55
2023/07/17 06:04:27;;;;;;;10.18;5.07;;;;;;;21.28;47.97;101152.91;15530388;28;19956;-56
2023/07/17 06:12:02;;;;;;;10.00;5.00;;;;;;;21.44;46.51;101176.41;15540619;28;20643;-56
2023/07/17 06:19:35;;;;;;;8.50;4.65;;;;;;;21.64;46.27;101195.56;15557610;28;20048;-54
2023/07/17 06:27:09;;;;;;;7.85;4.78;;;;;;;21.35;46.37;101186.25;15555377;28;20438;-56
2023/07/17 06:34:42;;;;;;;9.40;4.85;;;;;;;22.41;44.76;101185.34;15556421;28;20042;-58
2023/07/17 06:42:16;;;;;;;12.50;4.63;;;;;;;22.52;44.65;101188.03;15556007;28;20129;-55
2023/07/17 06:49:50;;;;;;;12.15;4.40;;;;;;;22.50;43.95;101193.00;15555648;28;20046;-55
2023/07/17 06:57:24;;;;;;;10.05;4.78;;;;;;;22.75;43.42;101195.63;15556120;28;20042;-58
2023/07/17 07:04:57;;;;;;;8.20;4.72;;;;;;;22.88;41.02;101195.00;15555289;28;20044;-54
2023/07/17 07:12:31;;;;;;;8.25;3.83;;;;;;;23.71;40.23;101193.41;15552339;28;20050;-50
2023/07/17 07:20:06;;;;;;;7.70;4.28;;;;;;;23.61;40.00;101188.81;15551895;28;20494;-54
2023/07/17 07:27:40;;;;;;;6.07;4.15;;;;;;;24.53;37.86;101198.09;15553548;28;20526;-56
2023/07/17 07:35:14;;;;;;;7.32;3.88;;;;;;;23.96;37.84;101208.81;15535523;28;20045;-58
2023/07/17 07:42:48;;;;;;;10.80;4.00;;;;;;;24.25;37.76;101203.34;15552397;28;20124;-56
2023/07/17 07:50:22;;;;;;;8.82;4.38;;;;;;;24.99;37.23;101211.25;15535809;28;20129;-57
2023/07/17 07:57:59;;;;;;;9.50;4.20;;;;;;;25.37;37.12;101223.09;15551962;28;20056;-56
2023/07/17 08:05:32;;;;;;;6.78;3.63;;;;;;;25.55;35.74;101225.00;15551394;28;20398;-54
2023/07/17 08:13:08;;;;;;;8.70;4.00;;;;;;;25.68;35.96;101216.00;15534176;28;20149;-54
2023/07/17 08:20:40;;;;;;;7.38;3.83;;;;;;;25.35;37.17;101230.81;15533755;28;20072;-51
2023/07/17 08:28:15;;;;;;;7.03;3.30;;;;;;;26.50;34.07;101222.03;15549469;28;20046;-57
2023/07/17 08:35:48;;;;;;;7.53;3.70;;;;;;;25.76;34.02;101224.72;15548345;28;20050;-52
2023/07/17 08:43:24;;;;;;;7.50;3.63;;;;;;;26.42;33.44;101212.50;15531767;28;20049;-58
2023/07/17 08:50:59;;;;;;;9.80;3.50;;;;;;;27.25;33.35;101216.03;15531447;28;20113;-58
2023/07/17 08:58:36;;;;;;;8.18;3.17;;;;;;;26.59;32.35;101218.25;15549026;28;20050;-52
2023/07/17 09:06:14;;;;;;;6.85;3.28;;;;;;;27.92;31.89;101204.19;15531320;28;20034;-56
2023/07/17 09:13:49;;;;;;;7.07;3.20;;;;;;;27.12;30.67;101195.63;15547283;28;20065;-54
2023/07/17 09:21:24;;;;;;;7.65;3.10;;;;;;;27.27;30.71;101197.22;15547851;28;20077;-54
2023/07/17 09:28:59;;;;;;;6.97;3.20;;;;;;;26.74;30.83;101200.59;15530170;28;20046;-53
2023/07/17 09:36:32;;;;;;;9.70;3.45;;;;;;;26.92;31.89;101198.84;15547333;28;20049;-56
2023/07/17 09:44:09;;;;;;;7.07;3.50;;;;;;;25.88;34.31;101203.88;15548820;28;20413;-57
2023/07/17 09:51:49;;;;;;;9.38;3.60;;;;;;;25.89;33.85;101199.19;15559608;28;20137;-57
2023/07/17 09:59:27;;;;;;;13.05;3.83;;;;;;;27.05;32.82;101210.97;15559006;28;20422;-57
2023/07/17 10:07:03;;;;;;;6.97;3.28;;;;;;;26.49;35.12;101206.59;15558012;28;20411;-60
2023/07/17 10:14:39;;;;;;;9.00;3.35;;;;;;;27.12;31.04;101200.34;15536254;28;20109;-54
2023/07/17 10:22:15;;;;;;;6.85;3.58;;;;;;;28.92;29.33;101196.16;15557483;28;20431;-58
2023/07/17 10:29:49;;;;;;;9.82;3.00;;;;;;;27.41;29.21;101188.91;15539328;28;20129;-56
2023/07/17 10:37:40;;;;;;;4.38;2.90;;;;;;;26.63;31.94;101194.50;15557376;28;20046;-57
2023/07/17 10:45:17;;;;;;;9.30;3.40;;;;;;;26.10;31.42;101199.63;15538415;28;20390;-59
2023/07/17 10:52:49;;;;;;;5.35;2.60;;;;;;;25.70;32.56;101200.03;15553875;28;20102;-58
2023/07/17 11:00:24;;;;;;;7.45;2.80;;;;;;;25.95;31.69;101190.53;15554790;28;20446;-54
2023/07/17 11:08:00;;;;;;;7.75;3.13;;;;;;;26.03;32.49;101197.28;15566741;23;20053;-57
2023/07/17 11:15:35;;;;;;;5.93;2.50;;;;;;;27.80;28.74;101163.41;15559892;28;20045;-59
2023/07/17 11:23:12;;;;;;;7.93;3.47;;;;;;;27.03;29.92;101177.38;15542442;28;20038;-60
2023/07/17 11:30:48;;;;;;;6.88;2.58;;;;;;;28.95;28.21;101172.59;15560079;28;20038;-59
2023/07/17 11:38:21;;;;;;;7.57;2.97;;;;;;;27.85;28.63;101171.56;15558884;28;20057;-58
2023/07/17 11:46:01;;;;;;;9.20;2.33;;;;;;;28.60;28.17;101166.19;15559125;28;20467;-58
2023/07/17 11:53:38;;;;;;;4.72;2.53;;;;;;;28.73;28.54;101163.28;15540712;28;20137;-57
2023/07/17 12:01:13;;;;;;;7.45;2.38;;;;;;;27.55;27.60;101161.25;15557726;28;20273;-59
2023/07/17 12:08:46;;;;;;;6.43;2.75;;;;;;;27.06;29.07;101155.53;15556865;28;20071;-58
2023/07/17 12:16:21;;;;;;;6.72;2.80;;;;;;;27.93;28.43;101157.00;15511903;28;20047;-59
2023/07/17 12:23:55;;;;;;;6.35;2.55;;;;;;;29.31;28.62;101152.13;15495508;28;20059;-57
2023/07/17 12:31:29;;;;;;;6.50;2.58;;;;;;;28.48;26.36;101145.50;15477835;28;20511;-58
2023/07/17 12:39:12;;;;;;;6.70;2.30;;;;;;;27.23;29.61;101146.59;15549033;28;20046;-58
2023/07/17 12:46:46;;;;;;;6.25;2.35;;;;;;;27.18;28.16;101141.22;15556070;28;20100;-60
2023/07/17 12:54:19;;;;;;;3.83;2.33;;;;;;;27.80;27.58;101138.59;15537959;28;20046;-57
2023/07/17 13:01:54;;;;;;;6.72;2.47;;;;;;;29.89;27.60;101125.78;15555080;28;20046;-61
2023/07/17 13:09:27;;;;;;;5.95;2.65;;;;;;;27.88;27.09;101139.75;15537571;28;20042;-57
2023/07/17 13:17:02;;;;;;;8.68;2.63;;;;;;;26.99;28.26;101140.53;15528115;28;20042;-58
2023/07/17 13:24:35;;;;;;;5.53;2.63;;;;;;;26.37;27.40;101127.28;15566118;28;20495;-60
2023/07/17 13:32:11;;;;;;;8.30;2.70;;;;;;;28.18;27.89;101125.09;15549300;28;20057;-60
2023/07/17 13:39:44;;;;;;;6.35;2.88;;;;;;;26.68;27.68;101125.53;15564781;28;20061;-58
2023/07/17 13:47:18;;;;;;;5.05;2.72;;;;;;;26.31;30.36;101125.75;15565973;28;20129;-57
2023/07/17 13:54:51;;;;;;;7.18;2.45;;;;;;;27.83;29.48;101137.94;15564484;28;20124;-58
2023/07/17 14:02:27;;;;;;;7.60;2.60;;;;;;;27.97;28.55;101124.84;15565543;28;20060;-61
2023/07/17 14:10:03;;;;;;;4.93;2.45;;;;;;;26.56;29.24;101141.75;15566035;28;20052;-60
2023/07/17 14:17:38;;;;;;;6.15;2.60;;;;;;;27.03;29.33;101125.81;15547488;28;20048;-60
2023/07/17 14:25:11;;;;;;;5.85;2.42;;;;;;;26.37;29.86;101132.78;15544207;28;20443;-59
2023/07/17 14:32:46;;;;;;;5.15;2.10;;;;;;;26.63;30.40;101133.91;15562395;28;20077;-52
2023/07/17 14:40:20;;;;;;;4.88;2.08;;;;;;;26.30;30.45;101124.09;15560855;28;20058;-54
2023/07/17 14:47:54;;;;;;;5.55;2.13;;;;;;;27.38;29.10;101115.91;15562274;28;20080;-55
2023/07/17 14:55:27;;;;;;;7.55;2.10;;;;;;;27.57;30.16;101121.22;15561349;28;20038;-55
2023/07/17 15:03:02;;;;;;;6.28;2.28;;;;;;;26.88;30.19;101115.97;15542056;28;20057;-55
2023/07/17 15:10:35;;;;;;;6.45;2.58;;;;;;;26.77;32.73;101105.53;15559231;28;20045;-54
2023/07/17 15:18:09;;;;;;;5.70;2.22;;;;;;;26.45;31.01;101107.31;15559860;28;20434;-55
2023/07/17 15:25:42;;;;;;;6.82;2.40;;;;;;;26.72;30.91;101092.69;15560037;28;20129;-53
2023/07/17 15:33:17;;;;;;;5.15;2.33;;;;;;;26.57;32.70;101106.78;15558906;28;20066;-53
2023/07/17 15:40:51;;;;;;;5.40;2.47;;;;;;;26.66;33.27;101102.16;15556208;28;20101;-53
2023/07/17 15:48:27;;;;;;;5.25;2.20;;;;;;;26.30;30.39;101094.69;15540835;28;20442;-56
2023/07/17 15:56:00;;;;;;;6.85;2.28;;;;;;;26.01;31.69;101096.91;15553991;28;20049;-56
2023/07/17 16:03:34;;;;;;;5.75;2.10;;;;;;;26.15;32.56;101095.78;15556521;28;20033;-55
2023/07/17 16:11:07;;;;;;;3.83;2.08;;;;;;;25.85;31.46;101104.66;15553747;28;20125;-57
2023/07/17 16:18:42;;;;;;;4.60;2.00;;;;;;;25.82;32.15;101106.06;15549291;28;20077;-54
2023/07/17 16:26:15;;;;;;;2.55;1.60;;;;;;;25.88;32.05;101104.88;15493005;28;20057;-57
2023/07/17 16:33:50;;;;;;;6.13;2.03;;;;;;;25.67;32.45;101114.56;15514748;28;20415;-55
2023/07/17 16:41:23;;;;;;;6.13;1.80;;;;;;;25.57;31.98;101120.25;15535605;28;20042;-52
2023/07/17 16:48:59;;;;;;;5.13;1.80;;;;;;;25.38;33.49;101131.28;15550530;28;20045;-55
2023/07/17 16:56:32;;;;;;;5.38;1.75;;;;;;;25.44;33.40;101144.63;15554775;28;20046;-57
2023/07/17 17:04:07;;;;;;;3.42;1.50;;;;;;;25.37;32.51;101135.97;15518389;28;20458;-53
2023/07/17 17:11:40;;;;;;;4.78;1.63;;;;;;;25.81;32.85;101142.94;15561409;23;20088;-56
2023/07/17 17:19:16;;;;;;;2.45;1.60;;;;;;;25.19;33.68;101156.88;15537958;28;20056;-52
2023/07/17 17:26:49;;;;;;;3.97;1.70;;;;;;;24.99;33.82;101159.06;15489460;28;20554;-54
2023/07/17 17:34:24;;;;;;;5.18;1.60;;;;;;;24.80;33.13;101173.59;15486085;28;20050;-52
2023/07/17 17:41:57;;;;;;;2.88;1.70;;;;;;;24.26;35.34;101169.31;15522680;28;20055;-54
2023/07/17 17:49:31;;;;;;;5.43;1.83;;;;;;;24.62;33.63;101175.22;15536833;28;20062;-56
2023/07/17 17:57:06;;;;;;;3.35;2.00;;;;;;;24.42;33.62;101189.97;15484240;28;20074;-53
2023/07/17 18:04:40;;;;;;;5.25;2.38;;;;;;;24.46;33.64;101184.72;15514895;28;20141;-53
2023/07/17 18:12:13;;;;;;;5.70;2.53;;;;;;;24.65;32.93;101199.31;15504367;28;20046;-57
2023/07/17 18:19:48;;;;;;;4.43;2.35;;;;;;;24.20;34.41;101197.88;15531849;28;20049;-56
2023/07/17 18:27:21;;;;;;;3.10;2.17;;;;;;;24.00;35.65;101203.56;15556156;28;20160;-54
2023/07/17 18:34:55;;;;;;;5.75;2.35;;;;;;;23.42;33.43;101221.56;15524180;28;20117;-54
2023/07/17 18:42:29;;;;;;;4.45;2.47;;;;;;;23.72;32.40;101230.69;15521793;28;20129;-54
2023/07/17 18:50:06;;;;;;;4.78;2.60;;;;;;;23.58;35.10;101254.34;15542255;28;20124;-53
2023/07/17 18:57:39;;;;;;;6.82;2.58;;;;;;;23.28;36.19;101255.38;15545436;28;20459;-57
2023/07/17 19:05:13;;;;;;;6.03;2.30;;;;;;;23.43;33.92;101260.75;15495825;28;20062;-51
2023/07/17 19:12:46;;;;;;;5.93;2.22;;;;;;;22.91;36.33;101289.47;15523614;28;20133;-54
2023/07/17 19:20:21;;;;;;;5.40;2.13;;;;;;;22.36;40.07;101315.84;15508390;28;20042;-54
2023/07/17 19:27:53;;;;;;;4.60;1.90;;;;;;;21.75;41.47;101326.72;15508730;28;20493;-55
2023/07/17 19:35:28;;;;;;;5.68;2.30;;;;;;;21.49;42.35;101331.28;15494070;28;20149;-56
2023/07/17 19:43:01;;;;;;;5.30;2.15;;;;;;;21.63;42.05;101359.75;15498417;28;20117;-54
2023/07/17 19:50:36;;;;;;;4.97;2.20;;;;;;;21.02;43.14;101373.94;15526829;28;20108;-55
2023/07/17 19:58:10;;;;;;;8.85;2.42;;;;;;;21.23;43.02;101387.72;15537141;28;20407;-56
2023/07/17 20:05:46;;;;;;;4.35;2.17;;;;;;;20.88;44.33;101389.13;15520721;28;20414;-58
2023/07/17 20:13:19;;;;;;;8.27;1.95;;;;;;;20.55;44.61;101385.63;15505872;28;20050;-53
2023/07/17 20:20:55;;;;;;;4.82;1.70;;;;;;;20.84;43.65;101394.31;15471706;28;20054;-56
2023/07/17 20:28:29;;;;;;;5.32;1.92;;;;;;;20.21;45.33;101406.03;15505634;28;20102;-52
2023/07/17 20:36:04;;;;;;;5.68;1.70;;;;;;;20.62;44.16;101423.63;15506526;28;20070;-53
2023/07/17 20:43:37;;;;;;;3.55;2.20;;;;;;;20.71;44.33;101451.25;15504607;28;20050;-56
2023/07/17 20:51:13;;;;;;;7.53;2.72;;;;;;;20.56;44.88;101473.72;15513208;28;20125;-50
2023/07/17 20:58:46;;;;;;;4.90;2.40;;;;;;;20.71;44.25;101471.16;15484615;28;20037;-52
2023/07/17 21:06:21;;;;;;;4.57;2.03;;;;;;;20.39;44.36;101491.00;15510556;28;20046;-55
2023/07/17 21:13:56;;;;;;;5.30;1.63;;;;;;;19.96;43.72;101470.13;15524775;28;20084;-52
2023/07/17 21:21:31;;;;;;;2.13;1.30;;;;;;;19.88;44.70;101485.00;15509773;28;20060;-54
2023/07/17 21:29:08;;;;;;;3.83;1.63;;;;;;;19.38;44.97;101466.88;15543077;28;20054;-56
2023/07/17 21:36:44;;;;;;;3.72;1.30;;;;;;;19.82;44.54;101480.56;15522724;28;20666;-53
2023/07/17 21:44:17;;;;;;;3.00;1.45;;;;;;;19.60;44.85;101512.41;15535548;28;20046;-53
2023/07/17 21:51:52;;;;;;;3.95;1.52;;;;;;;19.61;45.90;101527.69;15511072;28;20081;-53
2023/07/17 21:59:24;;;;;;;5.30;1.70;;;;;;;19.04;47.39;101512.38;15507417;28;20044;-47
2023/07/17 22:06:59;;;;;;;4.53;1.80;;;;;;;18.83;48.84;101529.44;15556086;28;20046;-54
2023/07/17 22:14:32;;;;;;;4.70;1.58;;;;;;;18.50;49.37;101536.41;15521740;28;20128;-51
2023/07/17 22:22:06;;;;;;;4.88;1.70;;;;;;;18.54;49.38;101542.22;15536127;28;20105;-53
2023/07/17 22:29:40;;;;;;;3.80;2.00;;;;;;;18.79;48.86;101547.31;15548484;28;20062;-54
2023/07/17 22:37:17;;;;;;;;;;;;;;;17.98;50.60;101547.34;15524391;28;20034;-54
2023/07/17 22:44:52;;;;;;;3.88;1.52;;;;;;;18.22;50.68;101553.56;15518092;28;19936;-53
2023/07/17 22:52:26;;;;;;;2.83;1.70;;;;;;;18.05;50.98;101549.97;15515006;28;20180;-52
2023/07/17 22:59:59;;;;;;;3.97;1.88;;;;;;;17.60;52.50;101564.16;15553003;28;20133;-54
2023/07/17 23:07:33;;;;;;;3.17;1.77;;;;;;;18.03;52.12;101558.34;15476090;28;20046;-52
2023/07/17 23:15:10;;;;;;;6.90;2.03;;;;;;;17.01;56.13;101576.84;15524622;28;20265;-50
2023/07/17 23:22:44;;;;;;;5.30;2.20;;;;;;;16.95;57.00;101580.47;15515961;28;20048;-52
2023/07/17 23:30:18;;;;;;;5.55;2.33;;;;;;;17.62;55.32;101585.63;15514489;28;20272;-50
2023/07/17 23:37:52;;;;;;;3.90;2.28;;;;;;;17.76;55.48;101585.16;15519998;28;20042;-53
2023/07/17 23:45:26;;;;;;;6.32;2.50;;;;;;;17.74;56.50;101578.34;15516804;28;20468;-55
2023/07/17 23:53:00;;;;;;;4.68;2.10;;;;;;;17.52;57.21;101576.19;15501144;28;20057;-52
